createdAt,value
2019-02-27T00:02:22.772Z,95.10
2019-02-27T00:04:49.661Z,95.20
2019-02-27T00:07:21.063Z,95.10
2019-02-27T00:09:50.767Z,95.30
2019-02-27T00:12:30.682Z,95.60
2019-02-27T00:15:02.114Z,95.30
2019-02-27T00:17:32.226Z,95.50
2019-02-27T00:20:04.976Z,95.90
2019-02-27T00:22:33.655Z,95.90
2019-02-27T00:25:04.060Z,96.00
2019-02-27T00:27:34.018Z,96.20
2019-02-27T00:30:05.590Z,95.90
2019-02-27T00:32:35.662Z,96.00
2019-02-27T00:35:07.254Z,95.60
2019-02-27T00:37:37.292Z,95.70
2019-02-27T00:40:07.150Z,96.00
2019-02-27T00:42:37.139Z,96.10
2019-02-27T00:45:09.407Z,95.90
2019-02-27T00:47:38.944Z,96.00
2019-02-27T00:50:09.920Z,96.00
2019-02-27T00:52:40.314Z,95.90
2019-02-27T00:55:10.779Z,95.90
2019-02-27T00:57:40.702Z,95.80
2019-02-27T01:00:14.630Z,96.30
2019-02-27T01:02:44.230Z,96.50
2019-02-27T01:05:13.911Z,96.20
2019-02-27T01:07:43.630Z,96.30
2019-02-27T01:10:13.296Z,96.30
2019-02-27T01:12:43.610Z,96.60
2019-02-27T01:15:14.503Z,96.70
2019-02-27T01:17:44.599Z,96.70
2019-02-27T01:20:15.539Z,96.60
2019-02-27T01:22:45.338Z,96.30
2019-02-27T01:25:15.627Z,96.00
2019-02-27T01:27:45.250Z,96.10
2019-02-27T01:30:16.775Z,96.20
2019-02-27T01:32:46.434Z,95.90
2019-02-27T01:35:18.723Z,96.20
2019-02-27T01:37:47.863Z,96.20
2019-02-27T01:40:18.577Z,96.50
2019-02-27T01:42:48.240Z,96.50
2019-02-27T01:45:20.766Z,96.40
2019-02-27T01:47:49.154Z,96.60
2019-02-27T01:50:24.518Z,96.60
2019-02-27T01:52:54.355Z,97.00
2019-02-27T01:55:23.943Z,97.60
2019-02-27T01:57:53.743Z,97.20
2019-02-27T02:00:23.970Z,97.20
2019-02-27T02:02:54.108Z,96.90
2019-02-27T02:05:26.536Z,96.80
2019-02-27T02:07:55.254Z,96.80
2019-02-27T02:10:28.069Z,97.20
2019-02-27T02:13:02.206Z,97.40
2019-02-27T02:15:34.804Z,97.50
2019-02-27T02:18:24.327Z,97.80
2019-02-27T02:21:32.043Z,97.70
2019-02-27T02:24:28.206Z,97.60
2019-02-27T02:27:32.351Z,97.50
2019-02-27T02:30:39.895Z,97.10
2019-02-27T02:33:21.027Z,97.10
2019-02-27T02:35:56.710Z,97.50
2019-02-27T02:38:29.308Z,97.60
2019-02-27T02:41:09.343Z,97.70
2019-02-27T02:43:45.182Z,97.90
2019-02-27T02:46:21.268Z,97.90
2019-02-27T02:49:17.018Z,97.90
2019-02-27T02:51:54.778Z,97.70
2019-02-27T02:54:38.960Z,97.60
2019-02-27T02:57:28.447Z,97.90
2019-02-27T03:00:09.719Z,98.10
2019-02-27T03:02:51.267Z,98.40
2019-02-27T03:05:26.691Z,98.60
2019-02-27T03:08:23.017Z,98.70
2019-02-27T03:11:19.048Z,99.00
2019-02-27T03:14:05.753Z,99.00
2019-02-27T03:16:50.136Z,99.20
2019-02-27T03:19:28.755Z,98.80
2019-02-27T03:22:18.186Z,98.50
2019-02-27T03:24:50.826Z,98.10
2019-02-27T03:27:35.346Z,98.00
2019-02-27T03:30:36.836Z,98.10
2019-02-27T03:33:09.804Z,98.20
2019-02-27T03:35:54.240Z,98.10
2019-02-27T03:38:32.611Z,98.10
2019-02-27T03:41:08.592Z,97.90
2019-02-27T03:43:45.986Z,97.70
2019-02-27T03:46:45.842Z,97.80
2019-02-27T03:49:24.583Z,97.80
2019-02-27T03:52:00.645Z,98.00
2019-02-27T03:54:34.811Z,98.10
2019-02-27T03:57:10.351Z,98.20
2019-02-27T04:00:03.216Z,98.40
2019-02-27T04:02:51.154Z,98.70
2019-02-27T04:05:47.778Z,99.10
2019-02-27T04:08:21.202Z,98.90
2019-02-27T04:10:50.835Z,98.80
2019-02-27T04:13:26.407Z,98.80
2019-02-27T04:15:53.830Z,98.50
2019-02-27T04:18:27.490Z,98.60
2019-02-27T04:20:53.567Z,98.30
2019-02-27T04:23:23.212Z,98.40
2019-02-27T04:25:53.108Z,98.30
2019-02-27T04:28:23.324Z,98.60
2019-02-27T04:30:53.085Z,98.60
2019-02-27T04:33:24.204Z,98.60
2019-02-27T04:35:54.001Z,98.60
2019-02-27T04:38:25.035Z,98.80
2019-02-27T04:40:54.846Z,98.90
2019-02-27T04:43:24.374Z,98.80
2019-02-27T04:45:53.939Z,98.90
2019-02-27T04:48:23.462Z,98.90
2019-02-27T04:50:52.993Z,99.10
2019-02-27T04:53:22.647Z,98.70
2019-02-27T04:55:52.771Z,98.60
2019-02-27T04:58:22.626Z,98.60
2019-02-27T05:00:52.646Z,98.60
2019-02-27T05:03:22.504Z,98.80
2019-02-27T05:05:52.521Z,98.50
2019-02-27T05:08:26.873Z,98.40
2019-02-27T05:10:53.587Z,98.20
2019-02-27T05:13:23.114Z,98.60
2019-02-27T05:15:53.082Z,98.30
2019-02-27T05:18:22.610Z,98.50
2019-02-27T05:20:52.150Z,98.60
2019-02-27T05:23:22.222Z,98.50
2019-02-27T05:25:52.028Z,98.70
2019-02-27T05:28:21.951Z,98.60
2019-02-27T05:30:52.105Z,98.60
2019-02-27T05:33:21.958Z,98.70
2019-02-27T05:35:51.903Z,99.10
2019-02-27T05:38:21.890Z,98.90
2019-02-27T05:40:52.158Z,98.90
2019-02-27T05:43:21.836Z,98.90
2019-02-27T05:45:51.702Z,98.80
2019-02-27T05:48:21.859Z,98.90
2019-02-27T05:50:51.780Z,99.00
2019-02-27T05:53:22.397Z,99.30
2019-02-27T05:55:52.683Z,99.50
2019-02-27T05:58:23.097Z,99.60
2019-02-27T06:00:53.685Z,99.10
2019-02-27T06:03:23.213Z,99.10
2019-02-27T06:05:52.735Z,98.90
2019-02-27T06:08:22.287Z,99.10
2019-02-27T06:10:56.084Z,99.40
2019-02-27T06:13:23.637Z,99.30
2019-02-27T06:15:53.385Z,99.40
2019-02-27T06:18:23.706Z,99.20
2019-02-27T06:20:54.325Z,99.00
2019-02-27T06:23:24.194Z,99.10
2019-02-27T06:25:58.966Z,99.40
2019-02-27T06:28:25.092Z,99.40
2019-02-27T06:30:54.722Z,99.90
2019-02-27T06:33:25.875Z,99.70
2019-02-27T06:35:55.408Z,99.80
2019-02-27T06:38:25.906Z,99.90
2019-02-27T06:40:55.454Z,99.80
2019-02-27T06:43:27.201Z,99.90
2019-02-27T06:45:56.251Z,99.90
2019-02-27T06:48:26.468Z,99.90
2019-02-27T06:50:58.234Z,99.90
2019-02-27T06:53:27.410Z,99.90
2019-02-27T06:55:56.949Z,99.90
2019-02-27T06:58:26.792Z,99.90
2019-02-27T07:00:56.785Z,99.90
2019-02-27T07:03:29.252Z,99.90
2019-02-27T07:05:57.911Z,99.90
2019-02-27T07:08:27.475Z,99.90
2019-02-27T07:10:58.970Z,99.90
2019-02-27T07:13:29.906Z,99.90
2019-02-27T07:15:59.609Z,99.90
2019-02-27T07:18:29.269Z,99.90
2019-02-27T07:20:59.276Z,99.90
2019-02-27T07:23:28.920Z,99.90
2019-02-27T07:25:59.057Z,99.70
2019-02-27T07:28:28.575Z,99.50
2019-02-27T07:30:58.312Z,99.50
2019-02-27T07:33:27.834Z,99.60
2019-02-27T07:35:57.426Z,99.80
2019-02-27T07:38:26.999Z,99.80
2019-02-27T07:40:56.519Z,99.90
2019-02-27T07:43:26.091Z,99.70
2019-02-27T07:45:56.150Z,99.90
2019-02-27T07:48:26.264Z,99.90
2019-02-27T07:50:56.025Z,99.90
2019-02-27T07:53:26.106Z,99.80
2019-02-27T07:55:55.912Z,99.80
2019-02-27T07:58:25.838Z,99.70
2019-02-27T08:00:55.868Z,99.60
2019-02-27T08:03:26.000Z,99.30
2019-02-27T08:05:55.799Z,99.20
2019-02-27T08:08:25.721Z,99.10
2019-02-27T08:10:55.670Z,98.90
2019-02-27T08:13:27.088Z,99.10
2019-02-27T08:15:57.962Z,99.00
2019-02-27T08:18:30.506Z,97.80
2019-02-27T08:21:00.064Z,95.20
2019-02-27T08:23:29.587Z,91.80
2019-02-27T08:25:59.286Z,88.50
2019-02-27T08:28:28.853Z,81.90
2019-02-27T08:30:58.386Z,78.70
2019-02-27T08:33:27.922Z,74.30
2019-02-27T08:35:57.570Z,71.40
2019-02-27T08:38:27.109Z,68.60
2019-02-27T08:40:58.272Z,67.00
2019-02-27T08:43:30.361Z,63.60
2019-02-27T08:46:02.154Z,63.70
2019-02-27T08:48:31.448Z,63.50
2019-02-27T08:51:05.727Z,64.10
2019-02-27T08:53:34.498Z,64.90
2019-02-27T08:56:04.051Z,62.80
2019-02-27T08:58:33.690Z,61.60
2019-02-27T09:01:05.460Z,61.20
2019-02-27T09:03:36.448Z,62.50
2019-02-27T09:06:06.678Z,64.10
2019-02-27T09:08:36.281Z,64.80
2019-02-27T09:11:06.866Z,62.60
2019-02-27T09:13:36.471Z,64.10
2019-02-27T09:16:05.998Z,65.90
2019-02-27T09:18:36.535Z,66.90
2019-02-27T09:21:06.302Z,68.30
2019-02-27T09:23:35.834Z,69.00
2019-02-27T09:26:05.641Z,70.90
2019-02-27T09:28:35.563Z,68.50
2019-02-27T09:31:05.558Z,69.40
2019-02-27T09:33:38.863Z,70.50
2019-02-27T09:36:08.000Z,69.10
2019-02-27T09:38:38.458Z,70.20
2019-02-27T09:41:12.162Z,68.40
2019-02-27T09:43:39.326Z,68.10
2019-02-27T09:46:09.566Z,65.60
2019-02-27T09:48:39.131Z,65.70
2019-02-27T09:51:08.733Z,64.50
2019-02-27T09:53:38.340Z,61.60
2019-02-27T09:56:08.056Z,62.50
2019-02-27T09:58:37.968Z,63.40
2019-02-27T10:01:13.159Z,58.80
2019-02-27T10:03:42.983Z,58.50
2019-02-27T10:06:12.708Z,56.90
2019-02-27T10:08:42.667Z,57.30
2019-02-27T10:11:12.360Z,56.80
2019-02-27T10:13:41.932Z,56.40
2019-02-27T10:16:11.666Z,53.50
2019-02-27T10:18:42.046Z,52.40
2019-02-27T10:21:12.091Z,52.10
2019-02-27T10:23:42.268Z,51.60
2019-02-27T10:26:11.907Z,48.10
2019-02-27T10:28:41.460Z,47.40
2019-02-27T10:31:12.657Z,45.80
2019-02-27T10:33:42.863Z,42.80
2019-02-27T10:36:13.091Z,43.80
2019-02-27T10:38:42.702Z,40.30
2019-02-27T10:41:12.411Z,38.40
2019-02-27T10:43:42.566Z,37.80
2019-02-27T10:46:12.096Z,35.40
2019-02-27T10:48:41.948Z,35.40
2019-02-27T10:51:11.478Z,34.60
2019-02-27T10:53:41.011Z,35.10
2019-02-27T10:56:10.570Z,34.50
2019-02-27T10:58:40.108Z,32.90
2019-02-27T11:01:09.819Z,31.80
2019-02-27T11:03:39.860Z,31.80
2019-02-27T11:06:09.701Z,31.70
2019-02-27T11:08:39.687Z,30.60
2019-02-27T11:11:09.664Z,29.50
2019-02-27T11:13:39.734Z,29.20
2019-02-27T11:16:09.648Z,27.30
2019-02-27T11:18:39.512Z,27.40
2019-02-27T11:21:09.642Z,27.60
2019-02-27T11:23:41.136Z,27.70
2019-02-27T11:26:11.489Z,29.20
2019-02-27T11:28:47.172Z,27.50
2019-02-27T11:31:12.467Z,26.40
2019-02-27T11:33:42.025Z,26.30
2019-02-27T11:36:11.724Z,26.90
2019-02-27T11:38:41.974Z,25.40
2019-02-27T11:41:14.913Z,25.30
2019-02-27T11:43:43.261Z,25.20
2019-02-27T11:46:12.850Z,25.00
2019-02-27T11:48:42.410Z,25.10
2019-02-27T11:51:13.926Z,25.20
2019-02-27T11:53:44.003Z,25.10
2019-02-27T11:56:13.875Z,24.40
2019-02-27T11:58:43.795Z,25.20
2019-02-27T12:01:13.791Z,24.50
2019-02-27T12:03:46.027Z,25.40
2019-02-27T12:06:14.975Z,26.40
2019-02-27T12:08:44.667Z,27.60
2019-02-27T12:11:14.340Z,27.80
2019-02-27T12:13:43.948Z,29.60
2019-02-27T12:16:15.245Z,32.60
2019-02-27T12:18:45.631Z,34.30
2019-02-27T12:21:16.093Z,35.20
2019-02-27T12:23:46.130Z,35.50
2019-02-27T12:26:15.844Z,36.10
2019-02-27T12:28:47.462Z,36.20
2019-02-27T12:31:18.038Z,33.90
2019-02-27T12:33:47.646Z,35.60
2019-02-27T12:36:18.744Z,36.50
2019-02-27T12:38:48.786Z,37.20
2019-02-27T12:41:18.490Z,38.30
2019-02-27T12:43:52.204Z,37.80
2019-02-27T12:46:20.691Z,37.00
2019-02-27T12:48:50.350Z,33.10
2019-02-27T12:51:21.108Z,32.70
2019-02-27T12:53:54.374Z,31.90
2019-02-27T12:56:21.996Z,31.50
2019-02-27T12:58:51.847Z,32.40
2019-02-27T13:01:21.723Z,31.40
2019-02-27T13:03:51.747Z,30.20
2019-02-27T13:06:21.701Z,29.40
2019-02-27T13:08:52.792Z,30.00
2019-02-27T13:11:23.823Z,31.10
2019-02-27T13:13:53.511Z,29.70
2019-02-27T13:16:23.112Z,27.80
2019-02-27T13:18:52.675Z,26.40
2019-02-27T13:21:22.534Z,25.80
2019-02-27T13:23:53.164Z,25.90
2019-02-27T13:26:22.743Z,26.20
2019-02-27T13:28:52.287Z,25.70
2019-02-27T13:31:22.525Z,25.10
2019-02-27T13:33:52.338Z,25.00
2019-02-27T13:36:22.128Z,25.00
2019-02-27T13:38:52.338Z,24.30
2019-02-27T13:41:23.830Z,23.40
2019-02-27T13:43:53.710Z,23.20
2019-02-27T13:46:23.548Z,23.20
2019-02-27T13:48:53.171Z,21.90
2019-02-27T13:51:22.849Z,22.20
2019-02-27T13:53:52.392Z,22.10
2019-02-27T13:56:22.035Z,22.10
2019-02-27T13:58:51.825Z,22.80
2019-02-27T14:01:25.213Z,22.60
2019-02-27T14:03:54.397Z,22.40
2019-02-27T14:06:24.096Z,22.10
2019-02-27T14:08:53.709Z,23.60
2019-02-27T14:11:24.949Z,22.20
2019-02-27T14:13:54.948Z,23.40
2019-02-27T14:16:24.480Z,24.50
2019-02-27T14:18:54.247Z,23.60
2019-02-27T14:21:26.194Z,24.60
2019-02-27T14:23:55.803Z,23.90
2019-02-27T14:26:25.388Z,23.60
2019-02-27T14:28:55.842Z,23.40
2019-02-27T14:31:25.518Z,23.40
2019-02-27T14:33:55.159Z,22.80
2019-02-27T14:36:24.771Z,22.80
2019-02-27T14:38:56.651Z,22.30
2019-02-27T14:41:25.690Z,22.00
2019-02-27T14:43:57.679Z,22.30
2019-02-27T14:46:26.534Z,23.20
2019-02-27T14:48:56.110Z,24.90
2019-02-27T14:51:26.180Z,26.80
2019-02-27T14:53:56.000Z,28.60
2019-02-27T14:56:26.030Z,32.20
2019-02-27T14:58:56.530Z,33.90
2019-02-27T15:01:27.063Z,34.30
2019-02-27T15:03:56.644Z,36.20
2019-02-27T15:06:26.577Z,36.30
2019-02-27T15:08:58.112Z,37.50
2019-02-27T15:11:31.050Z,37.50
2019-02-27T15:14:00.782Z,38.30
2019-02-27T15:16:30.410Z,37.50
2019-02-27T15:18:59.979Z,39.30
2019-02-27T15:21:31.832Z,38.80
2019-02-27T15:24:02.142Z,39.30
2019-02-27T15:26:31.842Z,38.50
2019-02-27T15:29:03.136Z,40.00
2019-02-27T15:31:32.833Z,41.40
2019-02-27T15:34:02.411Z,43.30
2019-02-27T15:36:32.080Z,42.60
2019-02-27T15:39:01.617Z,42.00
2019-02-27T15:41:35.178Z,41.90
2019-02-27T15:44:02.883Z,42.80
2019-02-27T15:46:32.451Z,42.90
2019-02-27T15:49:02.055Z,42.30
2019-02-27T15:51:35.593Z,43.00
2019-02-27T15:54:05.255Z,42.10
2019-02-27T15:56:34.850Z,42.20
2019-02-27T15:59:08.013Z,44.50
2019-02-27T16:01:36.348Z,44.10
2019-02-27T16:04:06.060Z,44.60
2019-02-27T16:06:37.113Z,44.10
2019-02-27T16:09:08.572Z,43.60
2019-02-27T16:11:38.388Z,44.40
2019-02-27T16:14:10.170Z,43.70
2019-02-27T16:16:39.296Z,44.30
2019-02-27T16:19:10.782Z,44.60
2019-02-27T16:21:40.417Z,45.60
2019-02-27T16:24:10.551Z,46.00
2019-02-27T16:26:40.252Z,45.90
2019-02-27T16:29:10.228Z,46.00
2019-02-27T16:31:40.863Z,45.60
2019-02-27T16:34:11.441Z,46.30
2019-02-27T16:36:41.188Z,46.40
2019-02-27T16:39:11.517Z,47.00
2019-02-27T16:41:41.185Z,47.30
2019-02-27T16:44:11.185Z,47.90
2019-02-27T16:46:44.552Z,48.20
2019-02-27T16:49:12.204Z,48.60
2019-02-27T16:51:42.047Z,48.70
2019-02-27T16:54:11.620Z,49.60
2019-02-27T16:56:46.566Z,49.60
2019-02-27T16:59:12.891Z,49.10
2019-02-27T17:04:45.855Z,50.20
2019-02-27T17:07:15.485Z,52.40
2019-02-27T17:09:45.023Z,50.20
2019-02-27T17:12:14.688Z,50.70
2019-02-27T17:14:44.695Z,50.20
2019-02-27T17:17:16.131Z,51.60
2019-02-27T17:19:45.936Z,51.60
2019-02-27T17:22:17.706Z,51.50
2019-02-27T17:24:47.671Z,52.20
2019-02-27T17:27:17.208Z,54.30
2019-02-27T17:29:47.243Z,55.80
2019-02-27T17:32:16.778Z,56.10
2019-02-27T17:34:47.724Z,55.60
2019-02-27T17:37:17.943Z,56.60
2019-02-27T17:39:47.704Z,56.30
2019-02-27T17:42:18.540Z,57.80
2019-02-27T17:44:48.487Z,58.60
2019-02-27T17:47:18.094Z,59.60
2019-02-27T17:49:47.706Z,61.10
2019-02-27T17:52:17.279Z,62.30
2019-02-27T17:54:47.491Z,63.70
2019-02-27T17:57:17.033Z,64.30
2019-02-27T17:59:46.697Z,64.50
2019-02-27T18:02:16.397Z,65.90
2019-02-27T18:04:51.014Z,66.70
2019-02-27T18:07:17.553Z,67.80
2019-02-27T18:09:47.096Z,68.90
2019-02-27T18:12:16.950Z,69.60
2019-02-27T18:14:46.971Z,69.80
2019-02-27T18:17:16.716Z,70.70
2019-02-27T18:19:47.315Z,70.50
2019-02-27T18:22:19.147Z,71.40
2019-02-27T18:24:48.683Z,72.90
2019-02-27T18:27:18.700Z,74.00
2019-02-27T18:29:48.272Z,73.00
2019-02-27T18:32:17.881Z,73.70
2019-02-27T18:34:47.498Z,75.60
2019-02-27T18:37:18.979Z,76.20
2019-02-27T18:39:48.927Z,76.10
2019-02-27T18:42:20.611Z,77.50
2019-02-27T18:44:50.635Z,77.10
2019-02-27T18:47:20.623Z,78.00
2019-02-27T18:49:52.195Z,78.30
2019-02-27T18:52:22.681Z,79.00
2019-02-27T18:54:54.766Z,79.50
2019-02-27T18:57:23.513Z,79.90
2019-02-27T18:59:53.164Z,80.50
2019-02-27T19:02:22.778Z,79.20
2019-02-27T19:04:52.406Z,78.50
2019-02-27T19:07:22.348Z,78.10
2019-02-27T19:09:52.034Z,77.70
2019-02-27T19:12:25.403Z,78.40
2019-02-27T19:14:52.958Z,81.00
2019-02-27T19:17:22.630Z,81.50
2019-02-27T19:19:52.232Z,83.20
2019-02-27T19:22:22.102Z,82.00
2019-02-27T19:24:51.694Z,81.90
2019-02-27T19:27:21.299Z,84.00
2019-02-27T19:29:50.937Z,83.90
2019-02-27T19:32:23.203Z,84.60
2019-02-27T19:34:52.339Z,84.80
2019-02-27T19:37:21.966Z,84.60
2019-02-27T19:39:53.419Z,85.20
2019-02-27T19:42:23.538Z,85.00
2019-02-27T19:44:53.164Z,85.60
2019-02-27T19:47:22.712Z,86.20
2019-02-27T19:49:52.320Z,86.70
2019-02-27T19:52:22.394Z,88.10
2019-02-27T19:54:52.940Z,89.10
2019-02-27T19:57:22.890Z,88.90
2019-02-27T19:59:52.526Z,89.20
2019-02-27T20:02:22.224Z,89.00
2019-02-27T20:04:51.848Z,89.80
2019-02-27T20:07:23.905Z,90.20
2019-02-27T20:09:54.370Z,89.70
2019-02-27T20:12:25.182Z,89.40
2019-02-27T20:14:57.063Z,89.20
2019-02-27T20:17:32.801Z,90.40
2019-02-27T20:20:00.622Z,90.40
2019-02-27T20:22:32.417Z,90.20
2019-02-27T20:25:02.033Z,90.20
2019-02-27T20:27:31.686Z,90.50
2019-02-27T20:30:02.172Z,90.20
2019-02-27T20:32:31.868Z,90.20
2019-02-27T20:35:01.449Z,90.50
2019-02-27T20:37:31.144Z,91.00
2019-02-27T20:40:00.756Z,91.10
2019-02-27T20:42:30.415Z,91.20
2019-02-27T20:45:00.563Z,91.30
2019-02-27T20:47:30.179Z,91.10
2019-02-27T20:50:00.070Z,91.40
2019-02-27T20:52:30.523Z,91.40
2019-02-27T20:55:00.159Z,91.50
2019-02-27T20:57:30.023Z,92.10
2019-02-27T21:00:02.338Z,91.90
2019-02-27T21:02:31.647Z,91.80
2019-02-27T21:05:01.316Z,91.70
2019-02-27T21:07:30.972Z,91.70
2019-02-27T21:10:00.495Z,91.90
2019-02-27T21:12:30.028Z,92.20
2019-02-27T21:14:59.891Z,92.40
2019-02-27T21:17:29.912Z,92.20
2019-02-27T21:20:00.853Z,92.50
2019-02-27T21:22:30.483Z,92.70
2019-02-27T21:25:00.568Z,92.70
2019-02-27T21:27:32.958Z,92.70
2019-02-27T21:30:01.435Z,92.90
2019-02-27T21:32:33.180Z,93.00
2019-02-27T21:35:02.905Z,93.30
2019-02-27T21:37:33.029Z,93.40
2019-02-27T21:40:03.354Z,93.20
2019-02-27T21:42:33.234Z,93.50
2019-02-27T21:45:04.667Z,93.40
2019-02-27T21:47:34.692Z,93.40
2019-02-27T21:50:07.269Z,93.40
2019-02-27T21:52:37.755Z,93.20
2019-02-27T21:55:12.683Z,93.20
2019-02-27T21:57:40.358Z,93.20
2019-02-27T22:00:17.535Z,93.10
2019-02-27T22:02:47.128Z,93.10
2019-02-27T22:05:18.886Z,93.40
2019-02-27T22:07:48.654Z,93.60
2019-02-27T22:10:19.539Z,93.30
2019-02-27T22:12:49.878Z,93.50
2019-02-27T22:15:29.949Z,93.80
2019-02-27T22:17:59.765Z,93.90
2019-02-27T22:20:29.438Z,94.20
2019-02-27T22:22:59.007Z,94.60
2019-02-27T22:25:31.085Z,94.40
2019-02-27T22:28:00.043Z,94.30
2019-02-27T22:30:31.685Z,94.40
2019-02-27T22:33:00.943Z,94.50
2019-02-27T22:35:31.139Z,94.50
2019-02-27T22:38:01.683Z,94.50
2019-02-27T22:40:31.213Z,94.40
2019-02-27T22:43:01.034Z,94.60
2019-02-27T22:45:31.278Z,94.30
2019-02-27T22:48:00.991Z,94.10
2019-02-27T22:50:31.190Z,94.30
2019-02-27T22:53:01.027Z,94.60
2019-02-27T22:55:30.917Z,94.70
2019-02-27T22:58:00.831Z,94.80
2019-02-27T23:00:55.895Z,94.90
2019-02-27T23:03:30.901Z,94.60
2019-02-27T23:06:00.991Z,94.70
2019-02-27T23:08:31.010Z,94.80
2019-02-27T23:11:18.791Z,94.80
2019-02-27T23:13:48.568Z,94.60
2019-02-27T23:16:19.870Z,94.70
2019-02-27T23:18:49.429Z,95.20
2019-02-27T23:21:19.143Z,94.90
2019-02-27T23:23:48.798Z,94.80
2019-02-27T23:26:20.154Z,95.00
2019-02-27T23:28:49.786Z,95.10
2019-02-27T23:31:23.290Z,95.50
2019-02-27T23:33:50.751Z,95.40
2019-02-27T23:36:21.871Z,95.60
2019-02-27T23:38:51.865Z,95.60
2019-02-27T23:41:23.145Z,95.30
2019-02-27T23:43:52.699Z,95.20
2019-02-27T23:46:22.296Z,95.30
2019-02-27T23:48:52.335Z,95.30
2019-02-27T23:51:22.115Z,95.30
2019-02-27T23:53:51.639Z,95.10
2019-02-27T23:56:21.196Z,95.20
2019-02-27T23:58:50.724Z,95.50
